Terminal Aerodrome Forecast
Issued by NWS Duluth, MN

Home | Current Version | Previous Version | Text Only | Print | Product List | Glossary On
Versions: 1 2 3 4 5 6 7 8 9 10 11 12 13 14 15 16 17 18 19 20 21 22 23 24 25
000
FTUS43 KDLH 231138
TAFDLH
TAF
KDLH 231138Z 2312/2412 01008KT P6SM SCT008 OVC040
      TEMPO 2312/2314 4SM -SN BR BKN008 OVC013
     FM231400 07010KT 5SM -RASN OVC008
     FM231700 08009KT P6SM OVC015
     FM232000 09013KT P6SM VCSH SCT015 BKN035
     FM240600 10015G25KT P6SM BKN040=

USA.gov is the U.S. government's official web portal to all federal, state and local government web resources and services.